Time;durP1;ratioP1;P1;durP2;ratioP2;P2;SDS_P1;SDS_P2;PMS_P1;PMS_P2;Temp;Humidity;BMP_temperature;BMP_pressure;BME280_temperature;BME280_humidity;BME280_pressure;Samples;Min_cycle;Max_cycle;Signal;HPM_P1;HPM_P2
2021/11/12 00:12:38;;;;;;;77.85;58.80;;;;;;;-1.04;100.00;102058.78;5021188;28;20513;-80
2021/11/12 00:15:06;;;;;;;71.43;60.85;;;;;;;-0.94;100.00;102056.41;5016037;28;20092;-77
2021/11/12 00:17:34;;;;;;;67.05;54.40;;;;;;;-0.71;100.00;102065.38;5023080;28;20500;-80
2021/11/12 00:20:02;;;;;;;65.15;58.25;;;;;;;-0.80;100.00;102056.34;5016376;28;20046;-81
2021/11/12 00:22:30;;;;;;;63.67;57.08;;;;;;;-1.42;100.00;102055.97;5018544;28;20057;-79
2021/11/12 00:24:59;;;;;;;58.13;52.33;;;;;;;-1.14;100.00;102049.03;5023162;28;20103;-77
2021/11/12 00:27:27;;;;;;;56.08;50.28;;;;;;;-1.06;100.00;102052.84;5022426;28;20443;-78
2021/11/12 00:30:01;;;;;;;65.15;59.33;;;;;;;-1.01;100.00;102045.53;5019357;28;20123;-77
2021/11/12 00:32:38;;;;;;;64.95;58.55;;;;;;;-0.96;100.00;102047.88;5013723;28;20494;-80
2021/11/12 00:35:16;;;;;;;57.88;52.10;;;;;;;-1.09;100.00;102037.38;5025811;28;20053;-81
2021/11/12 00:37:53;;;;;;;63.33;56.40;;;;;;;-0.96;100.00;102040.88;5020051;28;20133;-80
2021/11/12 00:40:24;;;;;;;58.63;53.33;;;;;;;-1.59;100.00;102030.97;5011703;28;20053;-80
2021/11/12 00:43:07;;;;;;;55.85;50.42;;;;;;;-1.24;100.00;102035.72;5024356;28;20080;-76
2021/11/12 00:45:42;;;;;;;68.50;62.45;;;;;;;-1.30;100.00;102033.50;5015841;28;20461;-79
2021/11/12 00:48:15;;;;;;;65.57;59.97;;;;;;;-1.39;100.00;102025.34;5021255;28;20057;-80
2021/11/12 00:51:01;;;;;;;67.28;61.42;;;;;;;-1.39;100.00;102024.50;5018495;28;20429;-81
2021/11/12 00:53:48;;;;;;;72.97;66.43;;;;;;;-1.30;100.00;102023.06;5017249;28;20477;-77
2021/11/12 00:56:15;;;;;;;79.28;72.53;;;;;;;-1.60;100.00;102024.09;5015260;28;20131;-81
2021/11/12 00:58:42;;;;;;;81.85;74.97;;;;;;;-1.56;100.00;102022.94;5011033;28;20058;-77
2021/11/12 01:01:08;;;;;;;78.80;70.85;;;;;;;-1.23;100.00;102020.00;5016543;28;20049;-77
2021/11/12 01:03:35;;;;;;;73.10;66.45;;;;;;;-0.94;100.00;102018.13;5022521;28;20427;-80
2021/11/12 01:06:02;;;;;;;74.38;67.80;;;;;;;-0.89;100.00;102023.03;5011243;28;20528;-80
2021/11/12 01:08:30;;;;;;;74.93;68.88;;;;;;;-0.87;100.00;102010.75;5018226;28;20061;-79
2021/11/12 01:10:57;;;;;;;85.38;78.95;;;;;;;-0.83;100.00;102014.00;5012038;28;20382;-79
2021/11/12 01:13:25;;;;;;;63.78;57.90;;;;;;;-1.02;100.00;102009.97;5010846;28;20140;-78
2021/11/12 01:15:52;;;;;;;62.22;55.88;;;;;;;-1.08;100.00;102010.38;5006930;28;20133;-81
2021/11/12 01:18:20;;;;;;;61.78;55.97;;;;;;;-1.63;100.00;102004.25;5013854;28;20524;-80
2021/11/12 01:20:47;;;;;;;58.13;52.75;;;;;;;-1.83;100.00;101996.84;5017973;28;20117;-80
2021/11/12 01:23:14;;;;;;;53.95;49.05;;;;;;;-1.41;100.00;101997.69;5021378;28;20053;-78
2021/11/12 01:25:43;;;;;;;59.03;53.50;;;;;;;-1.05;100.00;102007.56;5011659;28;20053;-80
2021/11/12 01:28:10;;;;;;;58.15;52.90;;;;;;;-1.28;100.00;102011.63;5008287;28;20466;-81
2021/11/12 01:30:37;;;;;;;54.58;49.83;;;;;;;-1.18;100.00;102002.28;5017275;28;20539;-78
2021/11/12 01:33:05;;;;;;;57.15;52.30;;;;;;;-1.23;100.00;102001.75;5023345;28;20146;-78
2021/11/12 01:35:33;;;;;;;58.97;53.95;;;;;;;-1.13;100.00;101995.94;5015904;28;20112;-78
2021/11/12 01:38:00;;;;;;;50.95;46.50;;;;;;;-1.46;100.00;101994.53;5015762;28;20046;-79
2021/11/12 01:40:29;;;;;;;50.75;46.25;;;;;;;-1.46;100.00;101997.16;5006585;28;20050;-78
2021/11/12 01:43:06;;;;;;;54.28;49.53;;;;;;;-1.40;100.00;101996.75;5014754;28;20478;-77
2021/11/12 01:45:47;;;;;;;56.22;51.30;;;;;;;-1.47;100.00;101996.31;5020743;28;20492;-78
2021/11/12 01:48:23;;;;;;;51.80;46.88;;;;;;;-1.55;100.00;101998.56;5024035;28;20060;-78
2021/11/12 01:50:56;;;;;;;59.33;53.65;;;;;;;-1.41;100.00;101990.72;5015551;28;20134;-77
2021/11/12 01:53:28;;;;;;;53.05;48.13;;;;;;;-1.77;100.00;101977.38;5019205;28;20140;-79
2021/11/12 01:56:21;;;;;;;52.45;47.75;;;;;;;-1.54;100.00;101975.94;5012156;28;20062;-82
2021/11/12 02:01:46;;;;;;;52.53;47.38;;;;;;;-1.66;100.00;101975.78;5003297;28;20064;-80
2021/11/12 02:04:14;;;;;;;54.80;49.67;;;;;;;-1.62;100.00;101976.44;5017095;28;20060;-81
2021/11/12 02:06:42;;;;;;;49.45;44.60;;;;;;;-1.85;100.00;101981.31;5013711;28;20487;-80
2021/11/12 02:09:18;;;;;;;54.60;49.40;;;;;;;-1.65;100.00;101976.63;5021141;28;20042;-79
2021/11/12 02:11:48;;;;;;;55.35;50.55;;;;;;;-1.78;100.00;101975.72;5013587;28;20061;-81
2021/11/12 02:14:18;;;;;;;55.10;50.05;;;;;;;-2.10;100.00;101978.50;5011831;28;20091;-77
2021/11/12 02:16:54;;;;;;;58.88;53.25;;;;;;;-1.97;100.00;101973.38;5017531;28;20053;-80
2021/11/12 02:19:22;;;;;;;62.35;56.25;;;;;;;-1.75;100.00;101983.34;5024425;28;20149;-80
2021/11/12 02:22:03;;;;;;;59.88;53.92;;;;;;;-1.82;100.00;101982.88;5017240;28;20042;-76
2021/11/12 02:24:30;;;;;;;61.47;54.75;;;;;;;-1.56;100.00;101986.47;5019373;28;20049;-79
2021/11/12 02:26:59;;;;;;;66.70;59.80;;;;;;;-1.64;100.00;101989.53;5019565;28;20068;-77
2021/11/12 02:29:29;;;;;;;60.50;55.13;;;;;;;-1.71;100.00;101988.25;5027921;28;20492;-77
2021/11/12 02:31:56;;;;;;;67.68;57.15;;;;;;;-1.82;100.00;101990.69;5014526;28;20104;-77
2021/11/12 02:34:23;;;;;;;57.30;51.53;;;;;;;-1.63;100.00;101977.38;5023251;28;20608;-77
2021/11/12 02:36:53;;;;;;;55.67;50.38;;;;;;;-1.63;100.00;101986.03;5028401;28;20080;-77
2021/11/12 02:39:21;;;;;;;51.22;46.10;;;;;;;-1.89;100.00;101984.19;5019333;28;20123;-79
2021/11/12 02:41:48;;;;;;;51.28;46.53;;;;;;;-1.97;100.00;101982.03;5017476;28;20041;-81
2021/11/12 02:44:16;;;;;;;51.85;46.95;;;;;;;-2.21;100.00;101976.56;5018508;28;20053;-80
2021/11/12 02:46:43;;;;;;;55.88;50.67;;;;;;;-1.90;100.00;101974.72;5026481;28;20060;-81
2021/11/12 02:49:09;;;;;;;58.05;52.70;;;;;;;-2.06;100.00;101972.19;5014768;28;20135;-79
2021/11/12 02:51:36;;;;;;;54.50;49.75;;;;;;;-2.19;100.00;101968.66;5023195;28;20052;-78
2021/11/12 02:54:08;;;;;;;53.95;49.08;;;;;;;-2.19;100.00;101966.06;5020815;28;20050;-78
2021/11/12 02:56:35;;;;;;;56.63;51.50;;;;;;;-1.95;100.00;101961.97;5017216;28;20096;-78
2021/11/12 02:59:05;;;;;;;59.22;54.53;;;;;;;-1.89;100.00;101964.19;5023678;28;20053;-78
2021/11/12 03:01:35;;;;;;;58.28;53.65;;;;;;;-1.87;100.00;101967.53;5108361;23;20054;-78
2021/11/12 03:04:02;;;;;;;59.42;54.30;;;;;;;-1.96;100.00;101980.28;4988646;28;20054;-78
2021/11/12 03:06:29;;;;;;;63.58;57.03;;;;;;;-1.89;100.00;101973.78;4990612;28;20058;-77
2021/11/12 03:09:01;;;;;;;60.20;54.75;;;;;;;-2.02;100.00;101981.50;4990937;28;20113;-77
2021/11/12 03:11:29;;;;;;;58.28;52.85;;;;;;;-2.19;100.00;101968.66;4989761;28;20066;-77
2021/11/12 03:13:56;;;;;;;54.72;49.63;;;;;;;-2.16;100.00;101977.13;4991969;28;20050;-78
2021/11/12 03:16:22;;;;;;;55.33;50.00;;;;;;;-2.21;100.00;101965.31;4990382;28;20465;-77
2021/11/12 03:18:49;;;;;;;59.95;54.50;;;;;;;-2.29;100.00;101967.53;4990433;28;20447;-80
2021/11/12 03:21:19;;;;;;;56.75;51.80;;;;;;;-2.34;100.00;101960.00;4990487;28;20046;-79
2021/11/12 03:23:50;;;;;;;58.85;53.38;;;;;;;-2.58;100.00;101960.53;4983793;28;20493;-80
2021/11/12 03:26:24;;;;;;;60.15;54.35;;;;;;;-2.41;100.00;101964.75;4986404;28;20592;-80
2021/11/12 03:59:49;;;;;;;55.00;50.33;;;;;;;-2.50;100.00;101949.69;4982093;28;20358;-80
2021/11/12 03:59:56;;;;;;;52.42;48.22;;;;;;;-2.54;100.00;101943.00;4988233;28;20560;-76
2021/11/12 04:02:35;;;;;;;46.17;42.15;;;;;;;-2.26;100.00;101951.75;4989001;28;20058;-80
2021/11/12 04:05:18;;;;;;;43.85;40.03;;;;;;;-2.36;100.00;101951.44;4988883;28;20054;-79
2021/11/12 04:18:47;;;;;;;56.25;51.53;;;;;;;-2.71;100.00;101946.56;4989012;28;20557;-80
2021/11/12 04:21:35;;;;;;;62.22;56.80;;;;;;;-2.48;100.00;101955.63;4988922;28;20050;-80
2021/11/12 05:11:12;;;;;;;49.13;44.45;;;;;;;-2.44;100.00;101970.13;4966305;28;20077;-79
2021/11/12 05:44:05;;;;;;;113.60;79.57;;;;;;;-1.84;100.00;101987.34;4920459;28;20407;-77
2021/11/12 05:46:41;;;;;;;118.20;80.85;;;;;;;-1.90;100.00;101991.16;4979708;28;20088;-77
2021/11/12 05:52:14;;;;;;;121.93;82.22;;;;;;;-1.22;100.00;101997.38;4986333;28;20077;-77
2021/11/12 05:57:32;;;;;;;183.40;104.82;;;;;;;-0.60;100.00;101987.22;4981649;28;20057;-79
2021/11/12 05:59:58;;;;;;;113.13;82.38;;;;;;;-0.65;100.00;101991.91;4987373;28;20133;-78
2021/11/12 06:02:25;;;;;;;104.00;77.80;;;;;;;-0.22;100.00;101991.63;4987571;28;20050;-77
2021/11/12 06:04:52;;;;;;;107.03;78.22;;;;;;;-0.25;100.00;101989.22;4985223;28;20065;-79
2021/11/12 06:07:19;;;;;;;152.55;94.75;;;;;;;0.20;100.00;101990.44;4987184;28;20073;-79
2021/11/12 06:09:46;;;;;;;143.73;92.00;;;;;;;0.55;100.00;101987.13;4959367;28;20047;-81
2021/11/12 06:12:13;;;;;;;123.80;84.22;;;;;;;1.19;100.00;101978.97;4987071;28;20060;-78
2021/11/12 06:14:42;;;;;;;93.88;77.13;;;;;;;1.45;100.00;101978.81;4986939;28;20057;-78
2021/11/12 06:17:09;;;;;;;87.13;78.03;;;;;;;1.53;100.00;101986.91;4986844;28;20762;-80
2021/11/12 06:19:36;;;;;;;83.95;74.70;;;;;;;1.80;100.00;101987.44;4989141;28;20121;-78
2021/11/12 06:22:03;;;;;;;84.88;76.10;;;;;;;2.27;100.00;101990.78;4987481;28;20475;-78
2021/11/12 06:24:29;;;;;;;91.15;82.90;;;;;;;2.40;100.00;101993.28;4988066;28;20132;-79
2021/11/12 06:26:57;;;;;;;86.38;78.60;;;;;;;2.76;100.00;101986.06;4987611;28;20061;-77
2021/11/12 06:29:23;;;;;;;92.47;84.25;;;;;;;3.03;100.00;101990.84;4987903;28;20047;-77
2021/11/12 06:31:52;;;;;;;89.05;80.38;;;;;;;3.33;100.00;101978.75;4987695;28;20474;-81
2021/11/12 06:34:19;;;;;;;85.30;77.25;;;;;;;3.56;100.00;101982.91;4987469;28;20058;-77
2021/11/12 06:36:46;;;;;;;102.38;93.28;;;;;;;3.83;100.00;101977.13;4988548;28;20051;-78
2021/11/12 06:39:14;;;;;;;102.75;93.82;;;;;;;4.08;100.00;101983.72;4988046;28;20464;-80
2021/11/12 06:41:53;;;;;;;84.65;76.35;;;;;;;4.10;100.00;101975.72;4986875;28;20553;-81
2021/11/12 06:44:29;;;;;;;79.57;71.50;;;;;;;4.42;100.00;101974.69;4987442;28;20467;-78
2021/11/12 06:49:51;;;;;;;77.05;69.35;;;;;;;4.70;100.00;101960.78;4984738;28;20675;-78
2021/11/12 06:52:20;;;;;;;77.68;70.50;;;;;;;8.29;100.00;101970.94;4988264;28;20121;-78
2021/11/12 06:54:47;;;;;;;81.82;74.10;;;;;;;5.56;100.00;101967.94;4988906;28;20057;-77
2021/11/12 06:57:18;;;;;;;84.25;76.40;;;;;;;5.83;100.00;101962.72;4987649;28;20057;-80
2021/11/12 06:59:46;;;;;;;86.32;78.55;;;;;;;5.42;100.00;101963.94;4987356;28;20090;-78
2021/11/12 07:02:16;;;;;;;75.78;69.25;;;;;;;5.30;100.00;101959.81;4988308;28;20065;-77
2021/11/12 07:04:43;;;;;;;77.38;70.00;;;;;;;5.55;100.00;101953.09;4988922;28;20057;-78
2021/11/12 07:07:10;;;;;;;78.38;70.90;;;;;;;6.11;100.00;101952.22;4991256;28;20117;-78
2021/11/12 07:09:38;;;;;;;75.95;68.68;;;;;;;5.90;100.00;101955.03;4988242;28;20545;-78
2021/11/12 07:12:05;;;;;;;76.15;68.95;;;;;;;6.42;100.00;101955.41;4982857;28;20057;-78
2021/11/12 07:14:32;;;;;;;73.88;67.15;;;;;;;6.72;100.00;101956.84;4989951;28;20054;-78
2021/11/12 07:16:59;;;;;;;73.65;66.65;;;;;;;6.37;100.00;101958.47;4990141;28;20065;-78
2021/11/12 07:19:27;;;;;;;76.15;69.13;;;;;;;6.61;100.00;101959.72;4990872;28;20057;-78
2021/11/12 07:21:57;;;;;;;75.43;68.15;;;;;;;7.34;100.00;101949.78;4993259;28;20049;-78
2021/11/12 07:24:24;;;;;;;78.55;71.00;;;;;;;7.18;100.00;101959.41;4992803;28;20046;-78
2021/11/12 07:26:51;;;;;;;75.47;68.22;;;;;;;7.81;100.00;101948.59;4988781;28;20050;-78
2021/11/12 07:29:20;;;;;;;74.57;67.47;;;;;;;8.01;100.00;101957.09;4994421;28;20079;-78
2021/11/12 07:56:07;;;;;;;92.57;84.28;;;;;;;10.88;100.00;101946.94;4948724;28;21014;-78
2021/11/12 08:21:13;;;;;;;91.97;82.40;;;;;;;10.40;100.00;101943.59;4987232;28;20516;-78
2021/11/12 08:23:49;;;;;;;93.57;84.13;;;;;;;11.70;100.00;101942.50;4991729;28;20134;-78
2021/11/12 08:26:21;;;;;;;92.38;82.60;;;;;;;9.76;100.00;101939.19;4993260;28;20054;-78
2021/11/12 08:29:12;;;;;;;93.60;82.60;;;;;;;11.59;100.00;101945.63;4992774;28;20043;-77
2021/11/12 08:38:29;;;;;;;103.03;93.00;;;;;;;10.78;100.00;101940.03;4990764;28;20128;-78
2021/11/12 08:41:05;;;;;;;93.30;84.15;;;;;;;10.00;100.00;101925.00;4991897;28;20480;-77
2021/11/12 08:43:34;;;;;;;98.40;88.93;;;;;;;11.60;100.00;101930.47;4989434;28;20050;-77
2021/11/12 08:46:18;;;;;;;106.97;96.32;;;;;;;8.41;100.00;101929.97;4987376;28;20065;-77
2021/11/12 08:48:54;;;;;;;99.82;90.65;;;;;;;12.21;100.00;101922.28;4989314;28;20387;-78
2021/11/12 08:51:21;;;;;;;86.00;77.40;;;;;;;10.28;100.00;101921.91;4985341;28;20471;-78
2021/11/12 08:53:51;;;;;;;92.13;82.93;;;;;;;11.04;100.00;101925.53;4988793;28;20050;-78
2021/11/12 08:56:22;;;;;;;90.13;81.38;;;;;;;12.41;100.00;101919.84;4987994;28;20086;-78
2021/11/12 08:58:51;;;;;;;87.60;79.10;;;;;;;12.20;100.00;101923.31;4985544;28;20058;-79
2021/11/12 09:01:18;;;;;;;91.50;82.15;;;;;;;12.21;100.00;101927.63;4990987;28;20333;-78
2021/11/12 09:03:46;;;;;;;91.20;82.57;;;;;;;13.34;100.00;101913.50;4989649;28;20047;-79
2021/11/12 09:06:13;;;;;;;89.30;80.60;;;;;;;13.76;100.00;101922.38;4989874;28;20057;-79
2021/11/12 09:08:40;;;;;;;86.85;78.18;;;;;;;13.62;100.00;101916.16;4985157;28;20082;-79
2021/11/12 09:11:10;;;;;;;88.90;80.28;;;;;;;12.87;100.00;101912.31;4988194;28;20065;-80
2021/11/12 09:13:41;;;;;;;92.07;83.25;;;;;;;13.18;100.00;101911.94;4989149;28;20042;-79
2021/11/12 09:16:11;;;;;;;96.90;87.50;;;;;;;12.74;100.00;101920.19;4988016;28;20058;-78
2021/11/12 09:18:39;;;;;;;92.85;83.90;;;;;;;15.57;100.00;101912.56;4988109;28;20145;-78
2021/11/12 09:21:05;;;;;;;96.50;87.03;;;;;;;15.88;100.00;101903.03;4987306;28;20054;-78
2021/11/12 09:23:33;;;;;;;109.53;99.50;;;;;;;13.75;100.00;101905.53;4988529;28;20046;-77
2021/11/12 09:26:00;;;;;;;101.53;92.05;;;;;;;12.40;100.00;101904.88;4987771;28;20050;-81
2021/11/12 09:28:28;;;;;;;101.13;91.18;;;;;;;13.32;100.00;101898.72;4988340;28;20133;-77
2021/11/12 09:30:55;;;;;;;99.97;89.95;;;;;;;15.07;100.00;101884.69;4987045;28;20050;-78
2021/11/12 09:33:22;;;;;;;89.40;80.45;;;;;;;13.00;100.00;101885.72;4987965;28;20069;-77
2021/11/12 09:35:49;;;;;;;104.65;94.88;;;;;;;14.28;100.00;101880.88;4988950;28;20054;-78
2021/11/12 09:38:16;;;;;;;93.80;84.80;;;;;;;15.50;100.00;101884.19;4987631;28;20062;-78
2021/11/12 09:40:43;;;;;;;88.50;79.43;;;;;;;13.79;100.00;101876.59;4988728;28;20042;-78
2021/11/12 09:43:10;;;;;;;90.43;81.10;;;;;;;14.38;100.00;101881.31;4987520;28;20061;-78
2021/11/12 09:45:39;;;;;;;89.72;80.72;;;;;;;12.70;100.00;101878.91;4989127;28;20057;-78
2021/11/12 09:48:08;;;;;;;97.03;87.78;;;;;;;14.55;100.00;101879.09;4988673;28;20060;-78
2021/11/12 09:50:36;;;;;;;105.07;95.55;;;;;;;14.74;100.00;101871.31;4985827;28;20050;-78
2021/11/12 09:53:03;;;;;;;109.25;99.30;;;;;;;14.41;100.00;101867.53;4988613;28;20058;-77
2021/11/12 09:55:31;;;;;;;105.50;95.43;;;;;;;15.63;100.00;101862.72;4988638;28;20491;-77
2021/11/12 09:58:00;;;;;;;113.88;103.20;;;;;;;14.64;100.00;101864.53;4989267;28;20109;-78
2021/11/12 10:00:27;;;;;;;114.35;104.03;;;;;;;15.24;100.00;101858.28;4988452;28;20042;-78
2021/11/12 10:02:57;;;;;;;109.03;98.97;;;;;;;15.83;100.00;101851.13;4987825;28;20486;-78
2021/11/12 10:05:34;;;;;;;103.28;93.97;;;;;;;12.09;100.00;101856.19;4988524;28;20058;-78
2021/11/12 10:08:02;;;;;;;109.63;99.30;;;;;;;12.10;100.00;101851.69;4985804;28;20065;-79
2021/11/12 10:10:29;;;;;;;105.82;96.30;;;;;;;15.62;100.00;101853.03;4987530;28;20062;-78
2021/11/12 10:12:57;;;;;;;110.72;100.82;;;;;;;14.62;100.00;101855.06;4988243;28;20050;-77
2021/11/12 10:15:29;;;;;;;106.57;97.13;;;;;;;16.19;100.00;101843.31;4989337;28;20068;-78
2021/11/12 10:18:08;;;;;;;107.78;98.10;;;;;;;13.02;100.00;101837.56;4989054;28;20442;-78
2021/11/12 10:20:35;;;;;;;104.93;95.22;;;;;;;13.13;100.00;101831.69;4987676;28;20050;-78
2021/11/12 10:23:14;;;;;;;108.85;98.78;;;;;;;13.62;100.00;101838.75;4989303;28;20061;-79
2021/11/12 10:25:55;;;;;;;112.13;102.13;;;;;;;14.82;100.00;101841.66;4988924;28;20061;-79
2021/11/12 10:28:37;;;;;;;107.65;97.82;;;;;;;16.65;100.00;101833.28;4985790;28;20541;-78
2021/11/12 10:31:12;;;;;;;95.38;86.25;;;;;;;16.86;100.00;101824.06;4988903;28;20449;-77
2021/11/12 10:33:40;;;;;;;88.63;79.85;;;;;;;16.02;100.00;101824.22;4988577;28;20061;-78
2021/11/12 10:36:08;;;;;;;86.40;77.57;;;;;;;16.63;100.00;101820.06;4988985;28;20518;-79
2021/11/12 10:38:41;;;;;;;97.50;88.80;;;;;;;15.78;100.00;101822.31;4991030;28;20497;-78
2021/11/12 10:41:17;;;;;;;109.05;99.72;;;;;;;16.47;100.00;101808.03;4992561;28;20060;-78
2021/11/12 10:43:43;;;;;;;107.60;98.20;;;;;;;13.93;100.00;101808.03;4991945;28;20042;-79
2021/11/12 10:46:10;;;;;;;103.00;94.07;;;;;;;16.43;100.00;101806.84;4991389;28;20058;-79
2021/11/12 10:48:37;;;;;;;113.18;103.07;;;;;;;17.29;100.00;101802.53;4992478;28;20054;-79
2021/11/12 10:51:20;;;;;;;115.55;105.75;;;;;;;15.20;100.00;101795.53;4992096;28;20058;-78
2021/11/12 10:53:52;;;;;;;107.25;98.03;;;;;;;16.74;100.00;101793.59;4991973;28;20046;-78
2021/11/12 10:56:20;;;;;;;106.80;97.07;;;;;;;16.54;100.00;101789.22;4992288;28;20141;-78
2021/11/12 10:59:00;;;;;;;104.15;94.45;;;;;;;17.34;96.00;101786.59;4991157;28;20313;-79
2021/11/12 11:01:35;;;;;;;100.03;91.00;;;;;;;18.70;92.57;101791.44;4991417;28;20054;-78
2021/11/12 11:04:19;;;;;;;86.10;77.50;;;;;;;17.69;92.63;101787.78;4991394;28;20054;-80
2021/11/12 11:06:48;;;;;;;97.50;88.50;;;;;;;17.46;96.87;101788.50;4991564;28;20054;-78
2021/11/12 11:09:15;;;;;;;89.00;80.60;;;;;;;16.52;100.00;101791.31;4992233;28;20050;-78
2021/11/12 11:11:43;;;;;;;103.32;94.38;;;;;;;17.30;100.00;101776.50;4991795;28;20061;-79
2021/11/12 11:14:34;;;;;;;110.50;100.53;;;;;;;15.28;100.00;101782.72;4992606;28;20062;-79
2021/11/12 11:17:26;;;;;;;110.03;100.32;;;;;;;17.30;100.00;101774.63;4972494;28;20055;-82
2021/11/12 11:19:54;;;;;;;115.43;105.07;;;;;;;14.83;100.00;101774.63;4991092;28;20570;-78
2021/11/12 11:22:24;;;;;;;116.03;105.25;;;;;;;13.56;100.00;101778.16;4990099;28;20050;-78
2021/11/12 11:24:51;;;;;;;110.15;100.00;;;;;;;15.27;100.00;101777.56;4991863;28;20061;-77
2021/11/12 11:27:18;;;;;;;117.18;106.88;;;;;;;16.92;100.00;101773.00;4991811;28;20050;-78
2021/11/12 11:29:44;;;;;;;133.65;120.10;;;;;;;16.47;100.00;101767.00;4991361;28;20050;-77
2021/11/12 11:32:11;;;;;;;121.60;110.35;;;;;;;15.99;100.00;101768.38;4991857;28;20073;-79
2021/11/12 11:34:39;;;;;;;116.63;105.80;;;;;;;15.90;100.00;101766.19;4992020;28;20062;-78
2021/11/12 11:37:06;;;;;;;137.55;122.65;;;;;;;17.12;100.00;101756.66;4991684;28;20050;-78
2021/11/12 11:39:35;;;;;;;109.40;99.70;;;;;;;15.35;100.00;101751.41;4992975;28;20080;-80
2021/11/12 11:42:04;;;;;;;115.32;104.93;;;;;;;16.28;100.00;101744.69;4991323;28;20050;-77
2021/11/12 11:44:32;;;;;;;109.32;99.35;;;;;;;14.51;100.00;101744.19;4991312;28;20061;-78
2021/11/12 11:47:02;;;;;;;111.75;101.60;;;;;;;16.57;100.00;101742.38;4990656;28;20058;-78
2021/11/12 11:49:31;;;;;;;101.07;91.47;;;;;;;17.71;98.65;101743.53;4990138;28;20054;-79
2021/11/12 11:52:01;;;;;;;97.55;88.00;;;;;;;17.23;93.03;101733.63;4990649;28;20062;-79
2021/11/12 11:54:35;;;;;;;90.25;81.25;;;;;;;16.05;100.00;101734.56;4986495;28;20054;-78
2021/11/12 11:57:14;;;;;;;93.57;84.43;;;;;;;16.36;100.00;101728.31;4990920;28;20050;-78
2021/11/12 11:59:41;;;;;;;94.45;85.10;;;;;;;18.24;100.00;101728.47;4991031;28;20069;-79
2021/11/12 12:02:13;;;;;;;63.08;57.75;;;;;;;15.74;100.00;101732.72;4991170;28;20434;-79
2021/11/12 12:04:41;;;;;;;59.78;54.40;;;;;;;18.07;99.21;101731.03;4990981;28;20074;-79
2021/11/12 12:07:23;;;;;;;62.70;56.83;;;;;;;15.86;100.00;101733.66;4990650;28;20506;-77
2021/11/12 12:09:59;;;;;;;65.38;59.10;;;;;;;16.73;100.00;101725.69;4991964;28;20124;-78
2021/11/12 12:12:51;;;;;;;66.50;60.38;;;;;;;15.38;100.00;101728.75;4990623;28;20426;-78
2021/11/12 12:15:44;;;;;;;64.10;58.23;;;;;;;15.14;100.00;101724.13;4971384;28;20058;-78
2021/11/12 12:18:30;;;;;;;;;;;;;;;15.33;100.00;101717.84;4988293;28;20076;-79
2021/11/12 12:40:38;;;;;;;66.20;59.95;;;;;;;14.18;100.00;101704.09;4931115;29;20052;-78
2021/11/12 13:22:37;;;;;;;70.60;63.72;;;;;;;12.04;100.00;101685.53;4952469;28;20054;-78
2021/11/12 13:25:04;;;;;;;72.88;66.07;;;;;;;12.13;100.00;101689.69;4988665;28;20058;-82
2021/11/12 13:27:31;;;;;;;70.90;64.20;;;;;;;11.90;100.00;101689.91;4989604;28;20084;-78
2021/11/12 13:29:58;;;;;;;67.13;59.92;;;;;;;11.85;100.00;101689.63;4989367;28;20054;-79
2021/11/12 13:32:26;;;;;;;71.65;64.70;;;;;;;12.17;100.00;101678.66;4989309;28;20054;-78
2021/11/12 13:34:53;;;;;;;105.78;94.18;;;;;;;11.56;100.00;101690.56;4989087;28;20054;-78
2021/11/12 13:37:22;;;;;;;88.60;77.85;;;;;;;11.28;100.00;101690.44;4989399;28;20058;-78
2021/11/12 13:40:06;;;;;;;98.28;83.32;;;;;;;11.14;100.00;101693.97;4989610;28;20097;-78
2021/11/12 13:42:39;;;;;;;82.35;69.65;;;;;;;11.67;100.00;101678.59;4987941;28;20147;-78
2021/11/12 13:45:17;;;;;;;77.03;68.00;;;;;;;11.50;100.00;101690.47;4987607;28;20584;-77
2021/11/12 13:47:47;;;;;;;74.93;63.03;;;;;;;11.46;100.00;101685.53;4989307;28;20054;-78
2021/11/12 13:50:17;;;;;;;88.47;71.15;;;;;;;11.08;100.00;101695.53;4988969;28;20053;-78
2021/11/12 13:52:44;;;;;;;87.00;74.63;;;;;;;11.11;100.00;101697.00;4988365;28;20483;-79
2021/11/12 13:55:13;;;;;;;89.43;69.45;;;;;;;10.95;100.00;101687.38;4988999;28;20054;-78
2021/11/12 13:57:52;;;;;;;88.82;70.85;;;;;;;11.43;100.00;101693.06;4989834;28;20132;-79
2021/11/12 14:00:20;;;;;;;98.75;70.57;;;;;;;11.43;100.00;101691.22;4988727;28;20066;-79
2021/11/12 14:02:54;;;;;;;117.47;70.05;;;;;;;11.35;100.00;101679.91;4989073;28;20054;-79
2021/11/12 14:05:21;;;;;;;104.15;71.45;;;;;;;11.28;100.00;101684.28;4986483;28;20042;-80
2021/11/12 14:07:59;;;;;;;128.55;82.88;;;;;;;10.95;100.00;101685.56;4989629;28;20890;-79
2021/11/12 14:10:34;;;;;;;149.77;93.53;;;;;;;10.86;100.00;101680.50;4988585;28;20047;-80
2021/11/12 14:13:02;;;;;;;193.88;109.10;;;;;;;10.12;100.00;101686.53;4989334;28;20458;-77
2021/11/12 14:15:31;;;;;;;184.38;92.20;;;;;;;9.96;100.00;101692.81;4993318;28;20483;-79
2021/11/12 14:18:33;;;;;;;175.75;93.13;;;;;;;10.22;100.00;101684.44;4993401;28;20137;-79
2021/11/12 14:21:15;;;;;;;124.80;72.70;;;;;;;9.95;100.00;101695.63;4992685;28;20150;-79
2021/11/12 14:24:15;;;;;;;127.78;76.57;;;;;;;9.84;100.00;101686.28;4993301;28;20117;-78
2021/11/12 14:26:49;;;;;;;128.88;75.57;;;;;;;9.73;100.00;101687.50;4991731;28;20105;-77
2021/11/12 14:35:27;;;;;;;98.53;66.10;;;;;;;8.68;100.00;101685.22;4993002;28;20072;-78
2021/11/12 14:38:14;;;;;;;98.82;66.25;;;;;;;8.10;100.00;101683.59;4992683;28;20471;-78
2021/11/12 14:41:02;;;;;;;89.93;66.30;;;;;;;8.27;100.00;101692.34;4993976;28;20046;-78
2021/11/12 14:43:36;;;;;;;90.70;66.38;;;;;;;8.14;100.00;101692.00;4993744;28;20151;-78
2021/11/12 14:46:15;;;;;;;103.43;75.68;;;;;;;8.01;100.00;101689.88;4992455;28;20120;-78
2021/11/12 14:48:54;;;;;;;103.07;80.38;;;;;;;7.91;100.00;101694.50;4993902;28;20116;-77
2021/11/12 14:51:25;;;;;;;89.55;70.10;;;;;;;7.68;100.00;101696.94;4992971;28;20061;-78
2021/11/12 14:53:53;;;;;;;92.13;74.85;;;;;;;7.08;100.00;101695.28;4995037;28;20503;-77
2021/11/12 14:56:22;;;;;;;91.55;73.38;;;;;;;7.38;100.00;101695.72;4995666;28;20051;-80
2021/11/12 14:58:54;;;;;;;95.70;74.38;;;;;;;7.38;100.00;101690.44;4995127;28;20069;-79
2021/11/12 15:01:23;;;;;;;86.20;75.07;;;;;;;7.36;100.00;101695.06;4995702;28;20154;-78
2021/11/12 15:03:51;;;;;;;92.32;79.45;;;;;;;7.11;100.00;101697.63;4994880;28;20138;-78
2021/11/12 15:06:21;;;;;;;89.80;77.53;;;;;;;6.60;100.00;101707.28;4991744;28;20043;-78
2021/11/12 15:08:52;;;;;;;106.80;82.43;;;;;;;6.74;100.00;101709.31;4995174;28;20053;-78
2021/11/12 15:11:22;;;;;;;101.28;81.93;;;;;;;6.70;100.00;101713.25;4994811;28;20097;-78
2021/11/12 15:13:51;;;;;;;104.28;85.03;;;;;;;6.55;100.00;101715.66;4995974;28;20054;-78
2021/11/12 15:16:20;;;;;;;118.28;87.97;;;;;;;6.25;100.00;101714.28;4994772;28;20081;-80
2021/11/12 15:18:47;;;;;;;146.63;96.68;;;;;;;6.13;100.00;101716.31;4994872;28;20046;-80
2021/11/12 15:21:16;;;;;;;120.78;93.40;;;;;;;6.07;100.00;101714.28;4992735;28;20050;-78
2021/11/12 15:24:04;;;;;;;120.63;89.32;;;;;;;6.08;100.00;101720.38;4994619;28;20514;-78
2021/11/12 15:29:31;;;;;;;102.22;84.93;;;;;;;5.95;100.00;101726.88;4955004;29;20050;-78
2021/11/12 15:32:03;;;;;;;99.60;81.65;;;;;;;5.40;100.00;101739.28;4978007;28;20516;-77
2021/11/12 15:34:32;;;;;;;114.38;92.72;;;;;;;5.47;100.00;101735.06;4992125;28;20050;-78
2021/11/12 15:37:04;;;;;;;113.10;92.53;;;;;;;5.52;100.00;101738.09;4991411;28;20064;-79
2021/11/12 15:39:37;;;;;;;114.15;88.47;;;;;;;5.25;100.00;101736.31;4990918;28;20105;-80
2021/11/12 15:44:53;;;;;;;111.72;91.90;;;;;;;5.36;100.00;101740.56;4987513;28;20577;-78